Time;durP1;ratioP1;P1;durP2;ratioP2;P2;SDS_P1;SDS_P2;PMS_P1;PMS_P2;Temp;Humidity;BMP_temperature;BMP_pressure;BME280_temperature;BME280_humidity;BME280_pressure;Samples;Min_cycle;Max_cycle;Signal;HPM_P1;HPM_P2
2021/04/15 00:01:56;;;;;;;10.85;8.55;;;;;;;1.84;80.99;100475.78;147617;1146;104536;-72
2021/04/15 00:04:59;;;;;;;9.47;7.73;;;;;;;1.89;79.96;100471.10;147760;1147;104585;-75
2021/04/15 00:08:04;;;;;;;8.28;7.17;;;;;;;1.96;81.10;100474.20;147741;1147;104455;-72
2021/04/15 00:11:07;;;;;;;7.78;6.58;;;;;;;2.03;81.51;100467.63;147773;1146;104460;-71
2021/04/15 00:14:13;;;;;;;8.30;7.25;;;;;;;2.11;80.81;100467.16;147757;1147;104543;-73
2021/04/15 00:17:16;;;;;;;8.98;7.97;;;;;;;2.14;80.89;100466.98;147593;1147;104547;-71
2021/04/15 00:20:21;;;;;;;9.45;7.92;;;;;;;2.11;81.69;100464.53;147760;1147;104547;-68
2021/04/15 00:23:24;;;;;;;10.20;8.50;;;;;;;2.12;82.16;100459.18;147370;1147;104546;-73
2021/04/15 00:26:29;;;;;;;9.27;7.67;;;;;;;2.13;81.42;100460.02;147588;1146;104950;-71
2021/04/15 00:29:32;;;;;;;8.40;6.67;;;;;;;2.18;81.36;100462.39;147783;1147;104560;-73
2021/04/15 00:32:35;;;;;;;7.87;7.08;;;;;;;2.21;81.28;100459.55;147721;1146;104566;-72
2021/04/15 00:35:39;;;;;;;8.15;7.20;;;;;;;2.21;82.06;100452.48;147810;1147;104489;-75
2021/04/15 00:38:43;;;;;;;8.70;7.50;;;;;;;2.22;81.34;100453.36;147779;1146;104451;-72
2021/04/15 00:41:46;;;;;;;7.65;6.85;;;;;;;2.24;81.10;100452.31;147769;1148;104444;-72
2021/04/15 00:44:50;;;;;;;6.97;6.12;;;;;;;2.33;80.79;100446.48;147749;1147;104506;-73
2021/04/15 00:48:00;;;;;;;6.65;5.90;;;;;;;2.39;81.44;100449.65;147795;1147;104648;-72
2021/04/15 00:51:08;;;;;;;5.53;4.85;;;;;;;2.38;81.48;100440.08;147825;1146;104540;-73
2021/04/15 00:54:26;;;;;;;6.87;5.80;;;;;;;2.32;80.83;100442.14;147782;1148;104592;-76
2021/04/15 00:57:32;;;;;;;7.33;5.97;;;;;;;2.34;81.31;100437.63;147763;1148;104444;-73
2021/04/15 01:00:36;;;;;;;5.42;4.70;;;;;;;2.44;81.74;100437.05;147716;1147;104467;-73
2021/04/15 01:03:40;;;;;;;5.90;4.85;;;;;;;2.49;80.39;100440.25;147503;1148;104756;-73
2021/04/15 01:06:43;;;;;;;6.05;5.05;;;;;;;2.41;81.66;100437.27;147774;1147;104521;-77
2021/04/15 01:09:48;;;;;;;5.83;4.78;;;;;;;2.38;80.35;100437.44;147779;1146;104828;-73
2021/04/15 01:13:06;;;;;;;6.17;4.50;;;;;;;2.40;81.39;100431.13;147761;1147;104469;-72
2021/04/15 01:16:19;;;;;;;4.67;3.87;;;;;;;2.48;81.05;100431.52;147806;1147;104455;-73
2021/04/15 01:19:59;;;;;;;4.20;3.62;;;;;;;2.53;81.14;100431.20;147807;1147;104553;-73
2021/04/15 01:23:21;;;;;;;4.55;3.10;;;;;;;2.50;81.92;100434.02;147751;1147;104547;-73
2021/04/15 01:26:47;;;;;;;5.27;4.03;;;;;;;2.45;80.58;100417.69;147764;1147;104458;-76
2021/04/15 01:29:59;;;;;;;4.53;3.52;;;;;;;2.50;80.17;100420.85;147769;1147;104534;-73
2021/04/15 01:33:13;;;;;;;3.60;2.80;;;;;;;2.55;81.64;100416.15;147709;1147;104522;-74
2021/04/15 01:36:22;;;;;;;3.87;3.20;;;;;;;2.55;81.73;100418.78;147720;1147;104551;-73
2021/04/15 01:39:29;;;;;;;4.50;3.17;;;;;;;2.50;81.04;100418.22;147745;1147;104448;-71
2021/04/15 01:42:36;;;;;;;5.33;4.10;;;;;;;2.44;80.36;100406.28;147484;1147;104764;-74
2021/04/15 01:45:40;;;;;;;4.12;3.12;;;;;;;2.46;80.92;100414.93;147763;1147;104585;-72
2021/04/15 01:48:47;;;;;;;5.03;2.77;;;;;;;2.44;80.14;100401.02;147761;1147;104540;-72
2021/04/15 01:51:53;;;;;;;3.12;2.65;;;;;;;2.48;80.66;100401.67;147764;1147;104895;-72
2021/04/15 01:55:03;;;;;;;3.65;3.25;;;;;;;2.44;80.83;100387.84;147817;1148;104592;-73
2021/04/15 01:58:14;;;;;;;4.00;3.17;;;;;;;2.42;80.91;100396.80;147759;1147;104550;-72
2021/04/15 02:01:21;;;;;;;4.85;3.40;;;;;;;2.43;81.30;100388.80;147643;1147;104607;-74
2021/04/15 02:04:28;;;;;;;3.92;2.90;;;;;;;2.50;81.00;100383.98;147728;1147;104576;-73
2021/04/15 02:07:39;;;;;;;4.33;3.15;;;;;;;2.52;80.95;100380.33;147360;1147;104609;-71
2021/04/15 02:10:46;;;;;;;3.52;2.95;;;;;;;2.46;81.94;100393.86;147644;1147;104457;-72
2021/04/15 02:13:51;;;;;;;4.80;3.42;;;;;;;2.45;80.08;100380.81;147771;1148;104444;-73
2021/04/15 02:16:56;;;;;;;4.28;3.35;;;;;;;2.46;81.73;100380.69;147775;1147;104471;-72
2021/04/15 02:20:02;;;;;;;4.62;3.20;;;;;;;2.43;82.60;100378.27;147526;1147;104487;-73
2021/04/15 02:23:09;;;;;;;4.63;3.50;;;;;;;2.45;80.92;100365.02;147740;1147;104832;-76
2021/04/15 02:26:17;;;;;;;5.85;3.83;;;;;;;2.42;81.73;100366.03;147782;1146;104479;-72
2021/04/15 02:29:24;;;;;;;5.12;4.05;;;;;;;2.40;81.47;100374.98;147737;1147;104537;-72
2021/04/15 02:32:30;;;;;;;5.60;4.37;;;;;;;2.35;82.36;100368.23;147751;1147;104451;-74
2021/04/15 02:35:38;;;;;;;5.95;4.30;;;;;;;2.40;80.78;100361.82;147774;1147;104528;-76
2021/04/15 02:38:50;;;;;;;6.80;5.22;;;;;;;2.43;81.40;100357.20;147746;1147;104599;-73
2021/04/15 02:41:54;;;;;;;7.30;6.20;;;;;;;2.41;81.30;100355.63;147715;1147;104512;-77
2021/04/15 02:45:04;;;;;;;9.05;6.97;;;;;;;2.41;80.68;100356.46;147341;1147;104550;-74
2021/04/15 02:48:12;;;;;;;8.63;7.13;;;;;;;2.40;80.91;100354.75;147707;1147;104442;-74
2021/04/15 02:51:21;;;;;;;8.23;7.10;;;;;;;2.43;81.03;100356.37;148048;1147;104538;-72
2021/04/15 02:54:29;;;;;;;8.80;7.78;;;;;;;2.42;81.38;100354.66;147882;1147;104610;-73
2021/04/15 02:57:38;;;;;;;9.15;8.10;;;;;;;2.43;81.29;100345.83;147751;1147;104543;-72
2021/04/15 03:00:45;;;;;;;10.63;8.93;;;;;;;2.43;80.89;100351.10;147409;1147;104609;-73
2021/04/15 03:03:52;;;;;;;11.70;9.68;;;;;;;2.40;80.11;100343.38;147668;1147;104480;-71
2021/04/15 03:07:00;;;;;;;9.98;8.70;;;;;;;2.42;81.29;100338.86;147486;1147;104411;-71
2021/04/15 03:10:08;;;;;;;8.60;7.27;;;;;;;2.44;80.38;100347.51;147767;1147;104620;-74
2021/04/15 03:13:15;;;;;;;9.80;8.60;;;;;;;2.49;80.82;100353.33;147754;1147;104547;-71
2021/04/15 03:16:21;;;;;;;10.00;8.90;;;;;;;2.48;80.84;100346.36;147939;1146;104493;-72
2021/04/15 03:19:26;;;;;;;10.93;8.93;;;;;;;2.46;81.42;100343.81;151781;1154;103132;-73
2021/04/15 03:22:37;;;;;;;9.50;7.95;;;;;;;2.45;81.49;100341.31;147714;1147;104543;-74
2021/04/15 03:25:41;;;;;;;7.78;6.78;;;;;;;2.46;81.62;100346.45;147645;1147;104626;-70
2021/04/15 03:28:53;;;;;;;9.10;8.15;;;;;;;2.50;80.81;100347.10;147789;1146;104613;-74
2021/04/15 03:32:18;;;;;;;9.28;8.00;;;;;;;2.49;81.06;100345.43;147611;1147;104444;-72
2021/04/15 03:35:28;;;;;;;9.55;7.92;;;;;;;2.46;80.55;100342.98;147688;1147;104590;-71
2021/04/15 03:38:35;;;;;;;9.10;7.10;;;;;;;2.47;81.61;100342.05;147679;1147;104569;-69
2021/04/15 03:41:44;;;;;;;7.92;6.12;;;;;;;2.49;81.81;100351.53;147619;1147;104525;-70
2021/04/15 03:44:51;;;;;;;8.87;7.73;;;;;;;2.47;80.76;100345.52;147322;1147;104512;-71
2021/04/15 03:48:01;;;;;;;8.58;7.03;;;;;;;2.45;80.95;100352.69;147658;1147;104535;-70
2021/04/15 03:51:08;;;;;;;7.97;7.17;;;;;;;2.43;81.25;100348.47;147650;1147;104447;-70
2021/04/15 03:54:14;;;;;;;8.13;6.90;;;;;;;2.42;81.33;100341.50;147600;1146;104463;-71
2021/04/15 03:57:20;;;;;;;7.33;6.37;;;;;;;2.40;81.29;100340.75;147554;1147;104523;-70
2021/04/15 04:00:30;;;;;;;6.63;5.83;;;;;;;2.38;81.36;100345.27;147599;1147;104527;-73
2021/04/15 04:03:37;;;;;;;6.97;6.07;;;;;;;2.45;80.42;100338.67;147725;1147;104892;-74
2021/04/15 04:06:43;;;;;;;6.30;5.70;;;;;;;2.46;82.00;100348.25;147699;1146;104590;-71
2021/04/15 04:09:54;;;;;;;6.35;5.22;;;;;;;2.43;80.80;100340.56;147731;1148;104475;-74
2021/04/15 04:13:16;;;;;;;4.90;4.30;;;;;;;2.49;80.93;100348.91;147698;1147;104558;-70
2021/04/15 04:16:24;;;;;;;4.20;3.80;;;;;;;2.49;82.02;100337.53;147760;1148;104536;-70
2021/04/15 04:19:35;;;;;;;4.12;3.72;;;;;;;2.54;81.48;100345.95;147687;1147;104547;-70
2021/04/15 04:22:47;;;;;;;5.17;4.45;;;;;;;2.49;80.34;100343.64;147327;1147;104988;-70
2021/04/15 04:26:04;;;;;;;5.30;4.23;;;;;;;2.46;81.29;100343.81;147579;1147;104578;-70
2021/04/15 04:29:23;;;;;;;4.10;3.60;;;;;;;2.45;81.69;100342.15;147651;1146;104629;-73
2021/04/15 04:32:29;;;;;;;3.45;2.55;;;;;;;2.49;82.09;100348.06;147636;1148;104468;-70
2021/04/15 04:35:37;;;;;;;3.33;2.92;;;;;;;2.52;80.96;100353.98;147634;1147;104479;-71
2021/04/15 04:38:42;;;;;;;2.97;2.67;;;;;;;2.54;80.68;100351.23;147616;1147;104547;-74
2021/04/15 04:42:02;;;;;;;3.05;2.75;;;;;;;2.44;80.82;100353.61;147695;1147;104577;-71
2021/04/15 04:45:09;;;;;;;3.60;3.02;;;;;;;2.40;81.12;100346.85;147668;1147;104599;-73
2021/04/15 04:48:20;;;;;;;3.67;3.20;;;;;;;2.41;81.04;100343.30;147580;1147;104466;-70
2021/04/15 04:51:29;;;;;;;5.60;5.10;;;;;;;2.44;80.35;100344.88;147058;1147;104485;-70
2021/04/15 04:54:32;;;;;;;3.72;3.37;;;;;;;2.51;81.40;100351.45;147442;1147;104573;-69
2021/04/15 04:57:40;;;;;;;3.70;3.27;;;;;;;2.51;80.48;100349.65;147709;1147;104470;-71
2021/04/15 05:00:46;;;;;;;3.52;3.20;;;;;;;2.49;81.18;100345.43;147658;1146;104447;-71
2021/04/15 05:03:56;;;;;;;4.80;4.00;;;;;;;2.42;81.80;100344.12;147619;1147;104541;-71
2021/04/15 05:07:04;;;;;;;4.33;3.40;;;;;;;2.42;80.43;100336.23;147842;1147;104516;-72
2021/04/15 05:10:13;;;;;;;3.45;2.98;;;;;;;2.44;80.44;100344.88;147837;1147;104550;-70
2021/04/15 05:13:19;;;;;;;6.53;5.92;;;;;;;2.43;80.87;100351.10;147797;1147;104885;-69
2021/04/15 05:16:24;;;;;;;5.90;5.30;;;;;;;2.44;80.90;100342.23;147723;1147;104622;-72
2021/04/15 05:19:29;;;;;;;4.42;3.62;;;;;;;2.44;80.88;100347.51;147817;1147;104532;-72
2021/04/15 05:22:37;;;;;;;3.47;3.17;;;;;;;2.47;81.21;100337.62;147855;1146;104447;-72
2021/04/15 05:25:45;;;;;;;3.60;2.87;;;;;;;2.54;81.24;100348.59;147766;1147;104456;-72
2021/04/15 05:28:51;;;;;;;3.80;2.77;;;;;;;2.60;80.74;100349.98;147726;1147;104541;-71
2021/04/15 05:31:56;;;;;;;2.90;2.60;;;;;;;2.61;80.18;100335.88;147663;1147;104626;-72
2021/04/15 05:35:00;;;;;;;2.77;2.47;;;;;;;2.60;81.25;100344.72;147784;1146;104494;-70
2021/04/15 05:38:06;;;;;;;3.87;2.90;;;;;;;2.55;81.37;100347.66;147695;1147;104456;-75
2021/04/15 05:41:17;;;;;;;3.90;3.05;;;;;;;2.55;80.50;100342.39;147207;1148;104449;-70
2021/04/15 05:44:25;;;;;;;3.35;2.77;;;;;;;2.58;80.02;100344.84;147593;1147;104472;-67
2021/04/15 05:47:31;;;;;;;4.22;2.92;;;;;;;2.65;80.99;100338.20;147596;1147;104627;-68
2021/04/15 05:50:38;;;;;;;4.55;3.75;;;;;;;2.73;80.37;100343.84;147667;1148;104532;-70
2021/04/15 05:53:45;;;;;;;4.67;3.83;;;;;;;2.64;81.30;100339.17;147608;1148;104544;-68
2021/04/15 05:56:58;;;;;;;6.25;4.22;;;;;;;2.60;80.83;100335.05;147539;1147;104546;-70
2021/04/15 06:00:12;;;;;;;5.53;4.00;;;;;;;2.63;80.78;100331.36;147688;1147;104538;-68
2021/04/15 06:03:26;;;;;;;4.93;3.47;;;;;;;2.74;80.31;100344.67;147603;1147;104617;-70
2021/04/15 06:06:32;;;;;;;4.33;3.55;;;;;;;2.79;80.68;100336.45;147722;1147;104479;-69
2021/04/15 06:09:35;;;;;;;4.35;3.37;;;;;;;2.79;80.46;100325.92;147654;1148;104741;-68
2021/04/15 06:12:47;;;;;;;10.08;6.12;;;;;;;2.67;81.59;100332.84;147604;1147;104538;-67
2021/04/15 06:15:57;;;;;;;;;;;;;;;2.66;80.19;100334.64;147567;1147;104473;-71
2021/04/15 06:19:06;;;;;;;5.80;3.62;;;;;;;2.71;79.57;100332.56;147666;1148;104544;-69
2021/04/15 06:22:14;;;;;;;4.35;3.62;;;;;;;2.88;79.73;100327.95;147666;1147;104549;-65
2021/04/15 06:25:21;;;;;;;5.12;3.77;;;;;;;3.03;79.92;100326.92;147636;1148;104441;-67
2021/04/15 06:28:28;;;;;;;6.22;4.35;;;;;;;3.02;79.00;100327.02;147547;1147;105055;-70
2021/04/15 06:31:34;;;;;;;4.60;3.58;;;;;;;3.02;79.17;100322.62;147583;1147;104549;-68
2021/04/15 06:34:39;;;;;;;4.10;3.47;;;;;;;3.02;79.04;100321.75;147245;1147;104550;-69
2021/04/15 06:37:48;;;;;;;3.92;2.98;;;;;;;3.07;79.34;100315.22;147199;1148;104519;-69
2021/04/15 06:41:27;;;;;;;4.72;3.15;;;;;;;3.10;79.25;100315.03;147535;1147;104467;-68
2021/04/15 06:45:06;;;;;;;2.90;2.20;;;;;;;3.19;80.11;100312.70;147487;1147;104511;-71
2021/04/15 06:48:30;;;;;;;3.50;2.80;;;;;;;3.15;78.79;100322.61;147624;1147;104473;-71
2021/04/15 06:51:54;;;;;;;3.95;2.52;;;;;;;3.19;80.18;100324.09;147710;1147;104611;-69
2021/04/15 06:55:15;;;;;;;3.20;2.40;;;;;;;3.18;79.24;100316.31;147657;1146;104598;-71
2021/04/15 06:58:56;;;;;;;3.10;2.20;;;;;;;3.12;79.38;100321.04;147465;1147;104482;-68
2021/04/15 07:02:09;;;;;;;2.77;1.90;;;;;;;3.21;78.76;100327.47;147598;1147;104476;-67
2021/04/15 07:05:16;;;;;;;2.12;1.52;;;;;;;3.29;78.57;100325.17;147471;1147;104467;-68
2021/04/15 07:09:00;;;;;;;2.42;1.80;;;;;;;3.33;78.36;100333.73;147542;1147;104748;-69
2021/04/15 07:12:34;;;;;;;2.37;2.05;;;;;;;3.34;79.08;100320.41;147067;1147;104585;-69
2021/04/15 07:16:01;;;;;;;2.98;2.40;;;;;;;3.32;79.43;100319.67;147282;1146;104451;-67
2021/04/15 07:19:40;;;;;;;3.15;2.35;;;;;;;3.21;79.38;100331.91;147540;1146;104472;-71
2021/04/15 07:23:19;;;;;;;5.70;2.67;;;;;;;3.28;79.66;100334.02;147599;1147;104473;-68
2021/04/15 07:26:51;;;;;;;5.50;3.95;;;;;;;3.36;79.76;100332.66;147566;1147;104512;-71
2021/04/15 07:30:25;;;;;;;3.90;2.90;;;;;;;3.35;78.63;100339.73;147636;1148;104556;-71
2021/04/15 07:33:41;;;;;;;2.80;2.05;;;;;;;3.36;78.73;100341.41;147597;1147;104504;-70
2021/04/15 07:37:11;;;;;;;3.50;2.40;;;;;;;3.37;79.12;100335.20;147517;1148;104513;-70
2021/04/15 07:40:37;;;;;;;3.10;2.40;;;;;;;3.40;78.98;100327.06;147600;1145;104479;-70
2021/04/15 07:44:07;;;;;;;3.12;2.40;;;;;;;3.47;79.99;100333.61;147498;1146;104455;-69
2021/04/15 07:47:32;;;;;;;3.95;2.90;;;;;;;3.67;80.47;100323.46;147157;1146;104490;-68
2021/04/15 07:51:16;;;;;;;4.67;3.40;;;;;;;3.85;79.04;100327.47;147232;1147;104523;-68
2021/04/15 07:54:48;;;;;;;4.42;3.35;;;;;;;3.95;78.62;100332.10;146990;1147;104541;-69
2021/04/15 07:58:28;;;;;;;5.20;3.90;;;;;;;3.99;79.87;100323.84;147553;1148;104454;-67
2021/04/15 08:02:01;;;;;;;5.08;2.77;;;;;;;3.93;78.65;100327.76;147335;1147;104604;-68
2021/04/15 08:05:32;;;;;;;3.97;2.50;;;;;;;4.00;78.85;100327.31;147186;1147;104662;-68
2021/04/15 08:09:04;;;;;;;3.40;2.40;;;;;;;4.17;79.04;100331.40;147310;1147;104538;-69
2021/04/15 08:12:32;;;;;;;4.15;2.98;;;;;;;4.31;78.91;100318.89;147354;1147;104610;-68
2021/04/15 08:15:56;;;;;;;5.67;4.00;;;;;;;4.45;77.98;100330.26;147266;1148;104476;-67
2021/04/15 08:19:16;;;;;;;4.08;3.02;;;;;;;4.40;78.57;100319.17;147359;1147;104591;-68
2021/04/15 08:22:38;;;;;;;6.70;3.75;;;;;;;4.46;79.00;100316.08;147485;1146;104549;-71
2021/04/15 08:25:57;;;;;;;4.97;2.80;;;;;;;4.63;78.45;100323.60;147168;1148;104486;-71
2021/04/15 08:29:21;;;;;;;4.75;3.30;;;;;;;4.78;78.46;100323.44;147083;1147;104543;-69
2021/04/15 08:32:30;;;;;;;3.35;2.58;;;;;;;4.90;78.06;100327.80;147255;1148;104558;-70
2021/04/15 08:35:54;;;;;;;4.03;2.85;;;;;;;5.01;78.47;100327.01;147405;1146;104713;-69
2021/04/15 08:39:12;;;;;;;3.87;2.90;;;;;;;5.13;77.92;100319.94;147490;1147;104480;-68
2021/04/15 08:42:26;;;;;;;2.85;2.10;;;;;;;5.17;77.42;100316.94;147139;1147;104493;-66
2021/04/15 08:45:49;;;;;;;4.03;2.70;;;;;;;5.33;77.96;100327.19;147129;1147;104582;-71
2021/04/15 08:49:04;;;;;;;3.40;2.15;;;;;;;5.26;77.14;100328.63;147149;1146;104476;-66
2021/04/15 08:52:24;;;;;;;3.40;2.15;;;;;;;5.26;76.19;100323.34;147404;1147;104601;-69
2021/04/15 08:55:34;;;;;;;5.30;3.12;;;;;;;5.34;77.93;100318.30;147479;1148;104463;-69
2021/04/15 08:58:57;;;;;;;3.75;2.92;;;;;;;5.62;78.28;100332.89;147557;1147;104471;-71
2021/04/15 09:02:11;;;;;;;4.17;2.75;;;;;;;5.59;77.31;100327.83;147538;1147;104547;-68
2021/04/15 09:05:21;;;;;;;3.72;2.70;;;;;;;5.55;77.28;100321.09;147176;1148;104553;-70
2021/04/15 09:08:32;;;;;;;4.17;2.10;;;;;;;5.50;76.85;100320.59;147141;1147;104596;-69
2021/04/15 09:11:41;;;;;;;4.70;2.67;;;;;;;5.48;77.19;100320.70;147178;1147;104436;-69
2021/04/15 09:14:57;;;;;;;5.85;3.27;;;;;;;5.54;76.83;100314.09;147217;1147;104475;-69
2021/04/15 09:18:10;;;;;;;5.45;3.58;;;;;;;5.60;76.65;100318.94;147582;1148;104486;-68
2021/04/15 09:21:27;;;;;;;5.00;3.77;;;;;;;5.86;77.16;100314.23;147283;1147;104587;-68
2021/04/15 09:24:43;;;;;;;4.53;3.23;;;;;;;5.83;76.09;100309.20;147232;1147;104665;-68
2021/04/15 09:27:59;;;;;;;3.17;2.13;;;;;;;5.85;76.41;100311.70;147211;1148;104594;-69
2021/04/15 09:31:11;;;;;;;4.33;2.60;;;;;;;5.89;76.96;100316.65;147227;1147;104483;-69
2021/04/15 09:34:47;;;;;;;3.05;2.15;;;;;;;5.85;76.47;100323.16;147124;1147;104877;-69
2021/04/15 09:38:33;;;;;;;4.08;2.90;;;;;;;5.85;76.50;100312.56;147288;1147;104477;-72
2021/04/15 09:41:51;;;;;;;4.55;2.95;;;;;;;5.92;76.59;100309.42;147601;1147;104619;-73
2021/04/15 09:45:21;;;;;;;3.02;2.30;;;;;;;5.82;75.43;100318.09;147571;1147;104502;-68
2021/04/15 09:49:04;;;;;;;4.03;2.63;;;;;;;5.67;76.12;100314.00;147116;1148;104501;-69
2021/04/15 09:52:28;;;;;;;;;;;;;;;5.59;75.88;100321.70;147616;1148;104526;-70
2021/04/15 09:55:43;;;;;;;4.53;3.07;;;;;;;5.70;76.47;100319.06;147535;1148;104554;-68
2021/04/15 09:58:58;;;;;;;3.93;2.70;;;;;;;5.79;76.57;100314.84;147107;1147;104511;-69
2021/04/15 10:02:09;;;;;;;3.50;2.50;;;;;;;5.92;76.51;100312.07;147461;1147;104565;-68
2021/04/15 10:05:34;;;;;;;3.60;2.72;;;;;;;5.95;75.42;100317.11;147583;1147;104485;-71
2021/04/15 10:08:46;;;;;;;4.10;3.00;;;;;;;6.02;76.10;100319.17;147441;1148;104449;-72
2021/04/15 10:12:06;;;;;;;3.83;3.17;;;;;;;6.12;76.14;100321.96;147595;1147;104568;-71
2021/04/15 10:15:32;;;;;;;2.98;2.22;;;;;;;6.13;75.02;100326.28;147614;1147;104576;-71
2021/04/15 10:19:02;;;;;;;3.73;2.50;;;;;;;6.15;76.07;100315.56;147711;1147;104473;-68
2021/04/15 10:22:15;;;;;;;4.37;3.00;;;;;;;6.25;75.76;100313.84;147388;1147;104542;-69
2021/04/15 10:25:23;;;;;;;4.50;3.27;;;;;;;6.38;75.79;100311.89;147558;1147;104550;-71
2021/04/15 10:28:50;;;;;;;5.30;3.52;;;;;;;6.36;75.07;100315.64;147608;1146;104531;-68
2021/04/15 10:32:17;;;;;;;6.40;5.37;;;;;;;6.41;74.46;100314.30;147209;1147;104688;-68
2021/04/15 10:35:39;;;;;;;7.92;5.97;;;;;;;6.31;75.71;100309.86;147585;1148;104417;-69
2021/04/15 10:39:19;;;;;;;6.15;4.50;;;;;;;6.31;76.27;100308.05;147322;1148;104469;-68
2021/04/15 10:42:57;;;;;;;8.50;6.72;;;;;;;6.09;75.70;100316.89;147511;1147;104518;-69
2021/04/15 10:46:24;;;;;;;5.60;4.47;;;;;;;5.84;75.19;100308.22;147270;1147;104466;-69
2021/04/15 10:49:36;;;;;;;11.95;9.15;;;;;;;5.74;75.34;100309.08;147328;1147;104533;-69
2021/04/15 10:53:03;;;;;;;7.37;6.03;;;;;;;5.69;75.98;100307.61;147199;1147;104529;-69
2021/04/15 10:56:10;;;;;;;18.90;16.23;;;;;;;5.83;76.74;100311.84;147183;1147;104545;-70
2021/04/15 10:59:35;;;;;;;11.55;9.28;;;;;;;5.93;76.38;100313.73;147584;1147;104472;-68
2021/04/15 11:02:50;;;;;;;9.98;7.55;;;;;;;5.96;76.12;100316.19;147179;1147;104519;-71
2021/04/15 11:05:54;;;;;;;15.20;13.62;;;;;;;5.89;75.94;100313.16;147124;1147;104619;-70
2021/04/15 11:09:14;;;;;;;21.05;17.37;;;;;;;5.73;75.93;100317.97;147617;1148;104562;-71
2021/04/15 11:12:26;;;;;;;8.93;7.72;;;;;;;5.73;75.77;100318.80;147663;1147;104485;-71
2021/04/15 11:15:43;;;;;;;12.97;9.67;;;;;;;5.75;76.15;100316.88;147194;1146;104525;-71
2021/04/15 11:18:47;;;;;;;8.90;6.50;;;;;;;5.75;75.92;100322.17;147464;1147;104495;-69
2021/04/15 11:21:51;;;;;;;5.87;4.78;;;;;;;5.82;76.15;100322.55;147457;1147;104614;-69
2021/04/15 11:25:13;;;;;;;5.25;3.70;;;;;;;5.88;76.28;100324.70;147662;1148;104503;-73
2021/04/15 11:28:33;;;;;;;5.20;3.70;;;;;;;5.79;75.46;100318.31;147646;1147;104544;-70
2021/04/15 11:31:40;;;;;;;6.80;4.50;;;;;;;5.67;76.10;100321.94;147639;1147;104918;-70
2021/04/15 11:34:43;;;;;;;8.28;5.67;;;;;;;5.72;76.08;100322.43;147621;1147;104553;-69
2021/04/15 11:37:49;;;;;;;5.75;4.47;;;;;;;5.70;75.98;100324.36;147626;1146;104607;-68
2021/04/15 11:40:53;;;;;;;7.53;4.05;;;;;;;5.70;75.66;100319.90;147658;1147;104546;-69
2021/04/15 11:44:06;;;;;;;7.05;4.92;;;;;;;5.68;75.30;100324.47;147643;1147;104455;-71
2021/04/15 11:47:22;;;;;;;6.20;4.25;;;;;;;5.71;75.75;100323.38;147657;1146;104547;-69
2021/04/15 11:50:25;;;;;;;6.75;4.45;;;;;;;5.74;75.45;100325.80;147657;1146;104476;-71
2021/04/15 11:53:41;;;;;;;5.12;3.92;;;;;;;5.79;76.17;100325.42;147614;1146;104543;-69
2021/04/15 11:56:44;;;;;;;5.83;3.85;;;;;;;5.81;75.43;100332.31;147701;1146;104553;-70
2021/04/15 12:00:07;;;;;;;8.85;4.28;;;;;;;5.79;75.91;100334.20;147569;1146;104476;-69
2021/04/15 12:03:20;;;;;;;5.95;4.03;;;;;;;5.89;75.34;100335.19;147602;1146;104544;-70
2021/04/15 12:06:27;;;;;;;5.28;3.90;;;;;;;5.97;75.63;100337.26;147640;1147;104562;-69
2021/04/15 12:09:35;;;;;;;4.87;3.57;;;;;;;5.99;75.29;100329.20;147604;1147;104583;-69
2021/04/15 12:12:41;;;;;;;4.70;3.60;;;;;;;6.03;75.64;100331.47;147685;1148;104543;-73
2021/04/15 12:15:53;;;;;;;5.17;3.90;;;;;;;6.08;74.70;100325.80;147653;1147;104475;-69
2021/04/15 12:19:01;;;;;;;4.92;3.90;;;;;;;6.07;75.25;100326.77;147628;1147;104473;-71
2021/04/15 12:22:13;;;;;;;6.15;4.03;;;;;;;6.16;75.81;100326.05;147649;1147;104454;-68
2021/04/15 12:25:17;;;;;;;;;;;;;;;6.22;75.43;100336.14;147694;1147;104475;-69
2021/04/15 12:28:30;;;;;;;5.00;3.50;;;;;;;6.41;75.51;100324.91;147700;1147;104508;-70
2021/04/15 12:31:41;;;;;;;7.25;5.10;;;;;;;6.53;75.50;100331.02;147702;1148;104444;-70
2021/04/15 12:34:54;;;;;;;4.15;3.33;;;;;;;6.71;75.55;100335.77;147342;1147;104509;-70
2021/04/15 12:38:05;;;;;;;4.75;3.35;;;;;;;6.69;74.75;100334.08;147176;1147;104528;-71
2021/04/15 12:41:11;;;;;;;6.37;4.30;;;;;;;6.64;74.87;100330.98;147479;1146;104543;-70
2021/04/15 12:44:20;;;;;;;5.55;3.70;;;;;;;6.59;73.94;100327.86;147516;1147;104518;-71
2021/04/15 12:47:24;;;;;;;6.73;4.13;;;;;;;6.38;74.93;100324.31;147152;1148;104503;-70
2021/04/15 12:50:28;;;;;;;4.97;3.83;;;;;;;6.32;75.29;100327.46;147553;1147;104525;-70
2021/04/15 12:53:35;;;;;;;4.47;3.22;;;;;;;6.41;75.74;100319.61;147701;1147;104529;-70
2021/04/15 12:56:41;;;;;;;4.90;2.95;;;;;;;6.49;74.59;100317.16;147649;1148;104530;-70
2021/04/15 12:59:47;;;;;;;4.83;3.00;;;;;;;6.51;74.87;100318.86;147459;1147;104522;-70
2021/04/15 13:07:11;;;;;;;5.90;3.30;;;;;;;6.65;74.70;100327.34;147596;1148;104626;-73
2021/04/15 13:10:40;;;;;;;4.95;3.47;;;;;;;6.60;74.52;100326.91;147584;1147;104540;-67
2021/04/15 13:13:44;;;;;;;5.25;3.55;;;;;;;6.62;73.26;100327.62;147174;1147;104623;-70
2021/04/15 13:16:52;;;;;;;5.80;3.98;;;;;;;6.57;74.41;100319.19;147405;1147;104444;-69
2021/04/15 13:19:57;;;;;;;6.75;4.10;;;;;;;6.60;75.49;100316.30;147662;1146;104458;-71
2021/04/15 13:23:37;;;;;;;6.47;3.53;;;;;;;6.75;74.69;100318.64;147641;1147;104454;-70
2021/04/15 13:26:41;;;;;;;6.95;4.45;;;;;;;6.92;74.45;100318.08;147514;1147;104522;-72
2021/04/15 13:30:09;;;;;;;5.40;3.87;;;;;;;6.90;73.56;100319.19;147402;1147;104621;-74
2021/04/15 13:33:16;;;;;;;4.97;3.70;;;;;;;6.84;74.98;100323.19;147635;1147;104449;-74
2021/04/15 13:36:23;;;;;;;5.67;3.97;;;;;;;6.87;75.54;100328.22;147752;1148;104544;-69
2021/04/15 13:39:44;;;;;;;4.65;3.75;;;;;;;6.83;74.06;100332.97;147729;1147;104473;-71
2021/04/15 13:42:48;;;;;;;3.70;2.98;;;;;;;6.71;74.16;100335.77;147235;1146;104479;-70
2021/04/15 13:45:51;;;;;;;8.30;5.08;;;;;;;6.53;74.36;100338.13;147481;1147;104566;-69
2021/04/15 13:48:57;;;;;;;4.67;3.35;;;;;;;6.43;74.77;100333.58;147553;1147;104480;-72
2021/04/15 13:52:11;;;;;;;10.60;8.13;;;;;;;6.39;75.31;100334.80;147634;1147;104473;-71
2021/04/15 13:55:32;;;;;;;28.55;19.92;;;;;;;6.51;74.31;100325.00;147634;1147;104574;-68
2021/04/15 13:58:37;;;;;;;20.83;15.83;;;;;;;6.65;74.49;100329.16;147387;1146;104473;-74
2021/04/15 14:01:43;;;;;;;23.32;15.83;;;;;;;6.60;74.17;100326.91;147486;1146;104514;-73
2021/04/15 14:04:51;;;;;;;27.22;20.35;;;;;;;6.64;74.77;100325.68;147725;1147;104556;-73
2021/04/15 14:07:56;;;;;;;11.12;7.50;;;;;;;6.69;74.81;100328.77;147702;1147;104444;-73
2021/04/15 14:11:28;;;;;;;15.28;9.83;;;;;;;6.68;75.54;100323.62;147742;1147;104548;-75
2021/04/15 14:14:45;;;;;;;14.83;11.00;;;;;;;6.73;74.76;100333.84;147774;1148;104906;-74
2021/04/15 14:17:51;;;;;;;7.35;4.80;;;;;;;6.70;74.42;100337.59;147755;1147;104601;-73
2021/04/15 14:20:57;;;;;;;6.47;4.92;;;;;;;6.63;74.49;100329.28;147696;1147;105000;-76
2021/04/15 14:24:04;;;;;;;8.28;5.95;;;;;;;6.54;75.60;100330.03;147696;1147;104543;-77
2021/04/15 14:27:16;;;;;;;6.60;4.47;;;;;;;6.51;74.64;100330.30;147759;1147;104466;-74
2021/04/15 14:30:22;;;;;;;5.22;3.92;;;;;;;6.37;74.80;100328.78;147805;1146;104544;-73
2021/04/15 14:33:31;;;;;;;9.63;7.35;;;;;;;6.37;75.18;100323.47;147788;1148;104634;-74
2021/04/15 14:36:36;;;;;;;8.83;6.97;;;;;;;6.39;75.31;100336.58;147699;1147;104460;-72
2021/04/15 14:39:42;;;;;;;6.75;4.65;;;;;;;6.45;74.70;100331.64;147565;1148;104450;-74
2021/04/15 14:42:46;;;;;;;7.10;4.80;;;;;;;6.51;74.64;100335.60;147754;1147;104468;-71
2021/04/15 14:45:49;;;;;;;9.27;6.90;;;;;;;6.55;75.00;100330.89;147449;1147;104585;-71
2021/04/15 14:48:52;;;;;;;6.30;4.60;;;;;;;6.53;74.91;100333.67;147816;1147;105064;-70
2021/04/15 14:52:18;;;;;;;7.27;5.90;;;;;;;6.44;74.84;100323.80;147389;1147;104618;-77